General Aviation Weather

Text Reports

Enter one or more of the following location identifiers separated by a space:

Zip Code, Four-Character ICAO or Three-Character IATA airport codes.

METAR - Aviation Routine Weather Report
KASG - Springdale, Arkansas
Updated at 12:48 AM GMT on June 04, 2015 (7:48 PM CDT):
METAR KASG 040048Z 19009KT 10SM SCT045 26/20 A2996
TAF - Terminal Area Forecast
KASG - Springdale, Arkansas
Updated at 12:48 AM GMT on June 04, 2015 (7:48 PM CDT):
No TAF is currently available for this location.
Decoded:
No decoded TAF is available.
PIREP - Pilot Weather Report
KASG - Springdale, Arkansas
Updated at 12:48 AM GMT on June 04, 2015 (7:48 PM CDT):
No PIREP is currently available for this location.
AIRMET - Airmens Meteorological Information
KASG - Springdale, Arkansas
Updated at 12:48 AM GMT on June 04, 2015 (7:48 PM CDT):
No AIRMET is currently available for this location.
SIGMET - Significant Meteorological Information
KASG - Springdale, Arkansas
Updated at 12:48 AM GMT on June 04, 2015 (7:48 PM CDT):
No SIGMET is currently available for this location.
NOTAM - Notice to Airmen
KASG - Springdale, Arkansas
Updated at 12:48 AM GMT on June 04, 2015 (7:48 PM CDT):
No NOTAM is currently available for this location.
Forecast Area
KASG - Springdale, Arkansas
Updated at 12:48 AM GMT on June 04, 2015 (7:48 PM CDT):
No NOTAM is currently available for this location.
Aviation Weather Maps